Time;durP1;ratioP1;P1;durP2;ratioP2;P2;SDS_P1;SDS_P2;PMS_P1;PMS_P2;Temp;Humidity;BMP_temperature;BMP_pressure;BME280_temperature;BME280_humidity;BME280_pressure;Samples;Min_cycle;Max_cycle;Signal;HPM_P1;HPM_P2
2021/06/02 00:00:15;;;;;;;4.03;3.30;;;16.20;89.40;;;;;;5074966;28;20200;-53
2021/06/02 00:02:48;;;;;;;2.90;2.60;;;16.10;89.10;;;;;;5074658;28;20255;-53
2021/06/02 00:05:15;;;;;;;3.93;2.87;;;16.20;89.60;;;;;;5074511;28;20417;-52
2021/06/02 00:07:41;;;;;;;3.50;3.20;;;15.90;89.30;;;;;;5074966;28;20957;-53
2021/06/02 00:10:09;;;;;;;4.33;2.47;;;15.80;90.10;;;;;;5074592;28;20784;-52
2021/06/02 00:12:35;;;;;;;3.33;2.83;;;15.70;90.40;;;;;;5074975;28;20428;-54
2021/06/02 00:15:04;;;;;;;3.00;2.80;;;15.80;90.70;;;;;;5073726;28;20429;-56
2021/06/02 00:17:30;;;;;;;3.60;2.40;;;15.80;90.70;;;;;;5072977;28;20410;-52
2021/06/02 00:19:56;;;;;;;3.03;2.80;;;15.80;90.80;;;;;;5073013;28;20422;-54
2021/06/02 00:22:22;;;;;;;2.80;2.60;;;15.60;90.90;;;;;;5073516;28;20632;-55
2021/06/02 00:24:48;;;;;;;3.27;2.70;;;15.40;91.50;;;;;;5075387;28;20664;-56
2021/06/02 00:27:14;;;;;;;2.43;2.23;;;15.30;91.70;;;;;;5072892;28;20449;-55
2021/06/02 00:29:44;;;;;;;3.40;2.60;;;15.30;91.90;;;;;;5072800;28;20945;-56
2021/06/02 00:32:11;;;;;;;2.70;2.50;;;15.30;92.00;;;;;;5072954;28;20429;-55
2021/06/02 00:34:38;;;;;;;3.10;2.73;;;15.20;92.30;;;;;;5073071;28;20485;-55
2021/06/02 00:37:06;;;;;;;4.70;2.80;;;15.20;92.30;;;;;;5072908;28;20434;-55
2021/06/02 00:39:32;;;;;;;2.90;2.70;;;15.20;92.60;;;;;;5073041;28;20793;-54
2021/06/02 00:41:58;;;;;;;3.27;2.97;;;15.10;92.70;;;;;;5072845;28;20403;-56
2021/06/02 00:44:24;;;;;;;3.80;3.40;;;15.10;92.80;;;;;;5072759;28;20405;-55
2021/06/02 00:46:51;;;;;;;3.07;2.87;;;15.20;92.80;;;;;;5072624;28;20627;-56
2021/06/02 00:49:23;;;;;;;3.13;2.83;;;15.30;92.80;;;;;;5073262;28;20205;-54
2021/06/02 00:51:56;;;;;;;3.87;2.73;;;15.30;92.90;;;;;;5073034;28;20898;-55
2021/06/02 00:54:22;;;;;;;3.23;2.90;;;15.20;93.00;;;;;;5072694;28;20401;-56
2021/06/02 00:56:50;;;;;;;3.00;2.70;;;15.30;93.20;;;;;;5074389;28;20445;-56
2021/06/02 00:59:55;;;;;;;4.47;2.90;;;15.40;93.50;;;;;;5077112;28;20572;-56
2021/06/02 01:02:22;;;;;;;4.03;3.63;;;15.50;93.40;;;;;;5032134;28;20478;-52
2021/06/02 01:04:51;;;;;;;3.10;2.90;;;15.60;93.80;;;;;;5077873;28;20399;-55
2021/06/02 01:07:19;;;;;;;4.40;3.07;;;15.60;93.60;;;;;;5077944;28;20401;-55
2021/06/02 01:09:51;;;;;;;3.77;2.57;;;15.60;93.60;;;;;;5077358;28;20443;-55
2021/06/02 01:12:21;;;;;;;2.70;2.50;;;15.60;93.70;;;;;;5077870;28;20405;-54
2021/06/02 01:14:48;;;;;;;2.90;2.70;;;15.60;93.70;;;;;;5058487;28;20419;-55
2021/06/02 01:17:15;;;;;;;3.00;2.80;;;15.60;93.70;;;;;;5059620;28;20406;-55
2021/06/02 01:19:42;;;;;;;3.33;3.03;;;15.50;93.80;;;;;;5076393;28;20429;-54
2021/06/02 01:22:08;;;;;;;3.27;2.97;;;15.50;94.10;;;;;;5076561;28;20403;-55
2021/06/02 01:24:34;;;;;;;3.40;2.77;;;15.50;94.10;;;;;;5076121;28;20399;-53
2021/06/02 01:27:02;;;;;;;2.97;2.77;;;15.40;94.40;;;;;;5077288;28;20178;-50
2021/06/02 01:29:29;;;;;;;6.20;3.10;;;15.40;94.40;;;;;;5076480;28;20606;-56
2021/06/02 01:32:16;;;;;;;2.90;2.63;;;15.30;94.60;;;;;;5076372;28;20764;-55
2021/06/02 01:34:58;;;;;;;3.10;2.90;;;15.10;94.70;;;;;;5076282;28;20443;-54
2021/06/02 01:37:35;;;;;;;3.67;2.87;;;15.00;95.00;;;;;;5076260;28;20910;-54
2021/06/02 01:40:18;;;;;;;3.20;2.90;;;14.90;95.20;;;;;;5076469;28;20866;-55
2021/06/02 01:43:08;;;;;;;2.73;2.53;;;14.90;95.60;;;;;;5067014;28;20447;-52
2021/06/02 01:45:52;;;;;;;2.47;2.27;;;14.90;95.70;;;;;;5056142;28;20453;-54
2021/06/02 01:48:50;;;;;;;3.37;3.07;;;14.90;95.80;;;;;;5038058;28;20403;-56
2021/06/02 01:51:34;;;;;;;5.83;3.00;;;15.00;95.90;;;;;;5056147;28;20443;-55
2021/06/02 01:54:37;;;;;;;3.17;2.87;;;15.00;95.90;;;;;;5055836;28;20879;-53
2021/06/02 01:57:30;;;;;;;2.63;2.43;;;14.90;96.30;;;;;;5096342;23;20493;-51
2021/06/02 02:00:10;;;;;;;3.17;2.97;;;14.80;96.60;;;;;;5076270;28;20398;-53
2021/06/02 02:03:00;;;;;;;3.47;3.17;;;14.80;96.70;;;;;;5076395;28;20390;-53
2021/06/02 02:05:57;;;;;;;3.27;2.43;;;14.80;96.80;;;;;;5076452;28;20418;-52
2021/06/02 02:09:13;;;;;;;3.27;2.97;;;14.70;97.00;;;;;;5075520;28;20438;-54
2021/06/02 02:11:41;;;;;;;3.07;2.77;;;14.60;97.20;;;;;;4975389;28;20451;-51
2021/06/02 02:14:36;;;;;;;4.03;3.30;;;14.40;97.30;;;;;;5066229;28;20763;-51
2021/06/02 02:17:17;;;;;;;3.37;3.07;;;14.40;97.40;;;;;;5075548;28;20448;-51
2021/06/02 02:19:59;;;;;;;3.63;3.33;;;14.20;97.80;;;;;;5057836;28;20416;-50
2021/06/02 02:23:00;;;;;;;2.90;2.70;;;14.20;98.20;;;;;;5075564;28;20383;-52
2021/06/02 02:25:44;;;;;;;3.40;3.10;;;14.30;98.40;;;;;;5078299;28;20435;-51
2021/06/02 02:28:40;;;;;;;3.70;3.30;;;14.30;98.40;;;;;;5075888;28;20740;-52
2021/06/02 02:31:16;;;;;;;3.10;2.80;;;14.20;98.60;;;;;;5075714;28;20515;-51
2021/06/02 02:34:00;;;;;;;4.03;3.73;;;14.20;99.00;;;;;;5075721;28;20743;-51
2021/06/02 02:36:39;;;;;;;4.90;3.20;;;14.20;98.80;;;;;;5074475;28;20424;-53
2021/06/02 02:39:08;;;;;;;3.40;2.73;;;14.10;99.30;;;;;;5075659;28;20714;-51
2021/06/02 02:42:11;;;;;;;3.80;3.17;;;14.10;99.40;;;;;;5075346;28;20495;-52
2021/06/02 02:44:58;;;;;;;3.13;2.83;;;14.20;99.40;;;;;;5075260;28;20396;-53
2021/06/02 02:47:34;;;;;;;4.97;3.00;;;14.20;99.40;;;;;;5075072;28;20421;-53
2021/06/02 02:50:46;;;;;;;3.83;3.53;;;14.30;99.20;;;;;;5075425;28;20427;-54
2021/06/02 02:53:22;;;;;;;3.47;3.17;;;14.20;99.30;;;;;;5039213;28;20569;-50
2021/06/02 02:55:57;;;;;;;5.20;3.50;;;14.20;99.60;;;;;;5075103;28;20475;-54
2021/06/02 02:58:32;;;;;;;3.40;3.10;;;14.20;99.30;;;;;;5075476;28;20864;-52
2021/06/02 03:01:27;;;;;;;3.13;2.93;;;14.10;99.70;;;;;;5074946;28;20859;-54
2021/06/02 03:04:15;;;;;;;6.23;3.30;;;14.10;99.90;;;;;;5072499;28;20766;-52
2021/06/02 03:06:47;;;;;;;4.10;3.20;;;13.90;99.90;;;;;;5075829;28;20725;-54
2021/06/02 03:09:31;;;;;;;3.13;2.93;;;13.90;99.90;;;;;;5075057;28;20381;-54
2021/06/02 03:12:36;;;;;;;2.63;2.30;;;13.90;99.90;;;;;;5075055;28;20505;-54
2021/06/02 03:15:14;;;;;;;3.37;3.03;;;13.90;99.90;;;;;;5074728;28;20436;-53
2021/06/02 03:17:45;;;;;;;3.50;3.20;;;13.90;99.90;;;;;;5074552;28;20466;-54
2021/06/02 03:20:20;;;;;;;4.20;3.30;;;13.80;99.90;;;;;;5073881;28;20389;-53
2021/06/02 03:23:00;;;;;;;3.47;3.13;;;13.80;99.90;;;;;;5074791;28;20410;-53
2021/06/02 03:25:38;;;;;;;3.53;3.23;;;13.90;99.90;;;;;;5074323;28;20430;-54
2021/06/02 03:28:14;;;;;;;3.57;3.20;;;13.90;99.90;;;;;;5074731;28;20405;-54
2021/06/02 03:30:48;;;;;;;5.93;3.50;;;14.00;99.90;;;;;;5074223;28;20426;-51
2021/06/02 03:33:43;;;;;;;3.83;3.43;;;13.90;99.90;;;;;;5074651;28;20393;-51
2021/06/02 03:36:30;;;;;;;3.90;3.60;;;13.90;99.90;;;;;;5073897;28;20899;-52
2021/06/02 03:39:27;;;;;;;3.50;3.17;;;13.90;99.90;;;;;;5074038;28;20851;-53
2021/06/02 03:41:56;;;;;;;3.60;3.30;;;13.90;99.90;;;;;;5074272;28;20426;-52
2021/06/02 03:44:27;;;;;;;3.33;3.03;;;13.80;99.90;;;;;;5074241;28;20436;-51
2021/06/02 03:47:14;;;;;;;3.63;3.00;;;13.80;99.90;;;;;;5073770;28;20417;-52
2021/06/02 03:49:55;;;;;;;3.70;3.40;;;13.70;99.90;;;;;;5074045;28;20435;-53
2021/06/02 03:52:36;;;;;;;3.93;3.30;;;13.60;99.90;;;;;;5074080;28;20379;-52
2021/06/02 03:55:09;;;;;;;3.20;3.00;;;13.60;99.90;;;;;;5074181;28;20384;-53
2021/06/02 03:58:00;;;;;;;3.30;3.10;;;13.60;99.90;;;;;;5073686;28;20419;-51
2021/06/02 04:00:37;;;;;;;3.67;3.37;;;13.70;99.90;;;;;;5073781;28;20369;-50
2021/06/02 04:03:06;;;;;;;3.67;3.23;;;13.70;99.90;;;;;;5073667;28;20400;-52
2021/06/02 04:05:51;;;;;;;3.67;3.37;;;13.70;99.90;;;;;;5073373;28;20432;-52
2021/06/02 04:08:27;;;;;;;3.70;3.40;;;13.70;99.90;;;;;;5073863;28;20414;-51
2021/06/02 04:11:11;;;;;;;4.80;3.07;;;13.60;99.90;;;;;;5073619;28;20424;-53
2021/06/02 04:13:59;;;;;;;4.90;3.30;;;13.60;99.90;;;;;;5073451;28;20734;-51
2021/06/02 04:16:39;;;;;;;3.40;3.10;;;13.70;99.90;;;;;;5073333;28;20416;-50
2021/06/02 04:19:26;;;;;;;3.70;3.30;;;13.60;99.90;;;;;;5074000;28;20379;-53
2021/06/02 04:21:52;;;;;;;3.70;3.30;;;13.70;99.90;;;;;;5074016;28;20381;-50
2021/06/02 04:24:18;;;;;;;3.23;2.97;;;13.60;99.90;;;;;;5075869;28;20504;-50
2021/06/02 04:26:45;;;;;;;4.13;3.40;;;13.60;99.90;;;;;;5073667;28;20209;-50
2021/06/02 04:29:13;;;;;;;3.30;3.00;;;13.60;99.90;;;;;;5073031;28;20470;-53
2021/06/02 04:31:48;;;;;;;3.50;3.30;;;13.60;99.90;;;;;;5073402;28;20405;-52
2021/06/02 04:34:13;;;;;;;3.60;3.30;;;13.70;99.90;;;;;;5066639;28;20412;-49
2021/06/02 04:36:40;;;;;;;3.93;3.63;;;13.70;99.90;;;;;;5059456;28;21047;-49
2021/06/02 04:39:06;;;;;;;3.50;3.20;;;13.70;99.90;;;;;;5053129;28;20213;-50
2021/06/02 04:41:32;;;;;;;3.30;3.00;;;13.70;99.90;;;;;;5053175;28;20901;-52
2021/06/02 04:43:59;;;;;;;4.23;3.50;;;13.80;99.90;;;;;;5053269;28;20167;-49
2021/06/02 04:46:24;;;;;;;7.73;3.50;;;13.90;99.90;;;;;;5052932;28;20520;-53
2021/06/02 04:48:51;;;;;;;3.80;3.50;;;13.90;99.90;;;;;;5053527;28;20429;-52
2021/06/02 04:51:25;;;;;;;4.00;3.60;;;13.90;99.90;;;;;;5053210;28;20194;-49
2021/06/02 04:54:22;;;;;;;4.63;3.80;;;13.90;99.90;;;;;;5053212;28;20392;-51
2021/06/02 04:56:56;;;;;;;6.77;4.10;;;13.80;99.90;;;;;;5052843;28;20447;-50
2021/06/02 05:00:16;;;;;;;5.13;3.90;;;13.80;99.90;;;;;;5053207;28;20409;-53
2021/06/02 05:02:48;;;;;;;4.23;3.80;;;13.90;99.90;;;;;;4972353;28;20416;-51
2021/06/02 05:05:22;;;;;;;5.00;3.40;;;14.00;99.90;;;;;;5039262;28;20512;-49
2021/06/02 05:08:07;;;;;;;4.50;4.13;;;14.10;99.90;;;;;;5052885;28;20757;-50
2021/06/02 05:10:52;;;;;;;3.87;3.40;;;14.20;99.90;;;;;;5052862;28;20523;-51
2021/06/02 05:13:39;;;;;;;3.90;3.50;;;14.40;99.90;;;;;;5052911;28;20382;-49
2021/06/02 05:16:41;;;;;;;3.80;3.50;;;14.50;99.90;;;;;;5052949;28;20424;-51
2021/06/02 05:19:57;;;;;;;6.13;4.07;;;14.70;99.90;;;;;;5053322;28;20400;-52
2021/06/02 05:23:00;;;;;;;4.20;3.80;;;14.90;99.90;;;;;;5052886;28;20386;-54
2021/06/02 05:25:50;;;;;;;3.77;3.40;;;15.10;99.90;;;;;;5052611;28;20422;-51
2021/06/02 05:29:02;;;;;;;3.53;3.23;;;15.30;99.90;;;;;;5053054;28;20391;-53
2021/06/02 05:31:44;;;;;;;4.50;3.50;;;15.40;99.90;;;;;;5016760;28;21028;-52
2021/06/02 05:34:35;;;;;;;4.57;3.70;;;15.60;99.90;;;;;;5053130;28;20824;-53
2021/06/02 05:37:44;;;;;;;5.57;4.70;;;15.70;99.90;;;;;;5052569;28;20430;-48
2021/06/02 05:40:23;;;;;;;4.57;4.13;;;15.90;99.90;;;;;;5052868;28;20402;-50
2021/06/02 05:43:06;;;;;;;5.17;4.00;;;16.10;99.90;;;;;;5054740;28;20377;-50
2021/06/02 05:45:35;;;;;;;7.20;4.80;;;16.20;99.90;;;;;;5056393;28;20427;-51
2021/06/02 05:48:28;;;;;;;5.83;4.90;;;16.30;99.90;;;;;;5056577;28;20467;-49
2021/06/02 05:51:17;;;;;;;3.80;3.47;;;16.40;99.90;;;;;;5056381;28;20494;-51
2021/06/02 05:54:01;;;;;;;4.30;3.63;;;16.60;99.90;;;;;;5056318;28;20434;-54
2021/06/02 05:56:48;;;;;;;4.30;3.70;;;16.90;99.90;;;;;;5055598;28;20442;-54
2021/06/02 05:59:37;;;;;;;3.73;3.43;;;17.30;99.40;;;;;;5055989;28;20907;-51
2021/06/02 06:02:40;;;;;;;4.20;3.80;;;17.40;97.50;;;;;;5055896;28;20474;-52
2021/06/02 06:05:29;;;;;;;3.90;3.57;;;17.60;96.90;;;;;;5055740;28;20920;-51
2021/06/02 06:08:32;;;;;;;3.80;3.27;;;17.90;97.50;;;;;;5056154;28;20392;-54
2021/06/02 06:11:28;;;;;;;3.43;3.13;;;18.00;97.90;;;;;;5055918;28;20444;-51
2021/06/02 06:14:34;;;;;;;2.90;2.70;;;18.10;98.10;;;;;;5056021;28;20447;-53
2021/06/02 06:17:21;;;;;;;4.97;3.10;;;18.20;97.90;;;;;;5055428;28;20416;-54
2021/06/02 06:20:11;;;;;;;5.63;3.23;;;18.30;97.70;;;;;;5055991;28;20763;-49
2021/06/02 06:23:09;;;;;;;4.67;4.23;;;18.30;97.50;;;;;;5069815;28;20483;-54
2021/06/02 06:26:05;;;;;;;6.03;3.20;;;18.40;96.90;;;;;;5030518;28;20799;-50
2021/06/02 06:28:52;;;;;;;5.47;4.00;;;18.50;96.30;;;;;;5041429;28;20412;-51
2021/06/02 06:31:22;;;;;;;3.73;3.33;;;18.60;95.50;;;;;;5075641;28;20431;-60
2021/06/02 06:33:50;;;;;;;6.13;3.70;;;18.70;96.30;;;;;;5074442;28;20494;-60
2021/06/02 06:36:19;;;;;;;4.40;3.77;;;18.70;95.50;;;;;;5073965;28;20504;-60
2021/06/02 06:39:03;;;;;;;4.47;3.60;;;18.60;95.30;;;;;;5075347;28;20407;-60
2021/06/02 06:41:32;;;;;;;7.43;4.80;;;18.70;96.00;;;;;;5075254;28;20384;-60
2021/06/02 06:43:59;;;;;;;5.97;4.70;;;18.60;95.70;;;;;;5075304;28;20427;-57
2021/06/02 06:46:26;;;;;;;6.70;5.10;;;18.80;95.50;;;;;;5074991;28;20951;-60
2021/06/02 06:48:55;;;;;;;8.83;6.00;;;19.00;95.60;;;;;;5074819;28;20554;-60
2021/06/02 06:51:22;;;;;;;8.60;5.43;;;19.10;95.60;;;;;;5074741;28;20443;-58
2021/06/02 06:53:50;;;;;;;5.87;5.23;;;19.00;95.00;;;;;;5074840;28;20782;-59
2021/06/02 06:56:17;;;;;;;8.10;5.80;;;19.00;94.60;;;;;;5056132;28;20451;-59
2021/06/02 06:58:44;;;;;;;7.07;5.10;;;19.00;94.50;;;;;;5074548;28;20405;-57
2021/06/02 07:01:13;;;;;;;5.90;4.70;;;19.00;93.70;;;;;;5074424;28;20408;-61
2021/06/02 07:03:40;;;;;;;6.73;4.40;;;19.30;93.20;;;;;;5074623;28;20407;-58
2021/06/02 07:06:06;;;;;;;14.07;5.47;;;19.50;92.40;;;;;;5074733;28;20453;-59
2021/06/02 07:08:32;;;;;;;8.83;5.40;;;19.30;93.20;;;;;;5074659;28;20502;-59
2021/06/02 07:11:00;;;;;;;5.50;4.53;;;19.30;93.20;;;;;;5074668;28;20277;-58
2021/06/02 07:13:27;;;;;;;6.20;4.50;;;19.20;93.10;;;;;;5056253;28;20416;-56
2021/06/02 07:15:53;;;;;;;6.10;4.57;;;19.40;93.40;;;;;;5074108;28;20450;-59
2021/06/02 07:18:20;;;;;;;6.40;4.73;;;19.50;93.30;;;;;;5074358;28;20392;-59
2021/06/02 07:20:47;;;;;;;7.20;4.77;;;19.50;93.50;;;;;;5068581;28;20419;-58
2021/06/02 07:23:13;;;;;;;5.40;4.90;;;19.50;93.40;;;;;;5066912;28;20944;-59
2021/06/02 07:25:39;;;;;;;5.80;5.17;;;19.40;93.70;;;;;;5054600;28;20433;-59
2021/06/02 07:28:10;;;;;;;5.10;4.60;;;19.50;93.50;;;;;;5054248;28;20256;-59
2021/06/02 07:30:36;;;;;;;4.40;4.00;;;19.60;93.60;;;;;;5054551;28;20194;-59
2021/06/02 07:33:02;;;;;;;6.67;4.20;;;19.90;93.60;;;;;;5053987;28;20401;-59
2021/06/02 07:35:27;;;;;;;4.93;3.57;;;20.10;91.90;;;;;;5054285;28;20631;-59
2021/06/02 07:37:53;;;;;;;3.83;3.17;;;20.20;92.20;;;;;;5054249;28;20174;-59
2021/06/02 07:40:19;;;;;;;4.50;3.73;;;20.50;91.30;;;;;;5054282;28;20170;-59
2021/06/02 07:42:45;;;;;;;5.47;4.27;;;20.60;91.40;;;;;;5053880;28;20920;-58
2021/06/02 07:45:11;;;;;;;5.40;4.10;;;20.70;91.10;;;;;;5054724;28;20251;-59
2021/06/02 07:47:37;;;;;;;6.50;4.40;;;20.90;90.80;;;;;;5054535;28;20216;-59
2021/06/02 07:50:04;;;;;;;5.50;4.10;;;21.10;90.60;;;;;;5053669;28;20988;-58
2021/06/02 07:52:29;;;;;;;4.77;3.50;;;21.00;90.40;;;;;;5053733;28;20167;-59
2021/06/02 07:54:55;;;;;;;7.30;4.33;;;21.00;90.40;;;;;;5053943;28;20405;-56
2021/06/02 07:57:21;;;;;;;8.33;4.37;;;20.90;90.00;;;;;;5092961;23;20228;-56
2021/06/02 07:59:46;;;;;;;6.63;3.80;;;20.80;90.60;;;;;;5074581;28;20171;-54
2021/06/02 08:02:12;;;;;;;6.60;4.10;;;20.90;90.80;;;;;;5073753;28;20622;-50
2021/06/02 08:04:37;;;;;;;3.90;3.50;;;21.10;90.60;;;;;;5072642;28;20166;-55
2021/06/02 08:07:07;;;;;;;6.00;4.00;;;21.10;90.30;;;;;;5073256;28;20186;-56
2021/06/02 08:09:33;;;;;;;5.80;3.97;;;21.20;89.70;;;;;;5073390;28;20166;-54
2021/06/02 08:11:58;;;;;;;3.90;3.50;;;21.30;88.30;;;;;;5073081;28;20409;-53
2021/06/02 08:14:24;;;;;;;5.23;3.73;;;21.40;88.00;;;;;;5072921;28;20204;-53
2021/06/02 08:16:50;;;;;;;6.00;4.23;;;21.30;88.10;;;;;;5073071;28;20375;-56
2021/06/02 08:19:15;;;;;;;5.83;4.17;;;21.30;87.60;;;;;;5073133;28;20165;-51
2021/06/02 08:21:41;;;;;;;4.73;3.93;;;21.40;88.60;;;;;;5072686;28;20214;-54
2021/06/02 08:24:07;;;;;;;5.13;4.10;;;21.50;86.10;;;;;;5073268;28;20169;-55
2021/06/02 08:26:37;;;;;;;6.70;4.10;;;21.80;85.50;;;;;;5072747;28;20204;-53
2021/06/02 08:29:04;;;;;;;5.90;4.10;;;21.80;87.00;;;;;;5075451;28;20430;-53
2021/06/02 08:31:30;;;;;;;4.87;3.80;;;22.00;87.00;;;;;;5073113;28;20853;-55
2021/06/02 08:33:57;;;;;;;6.73;3.60;;;22.20;84.10;;;;;;5073091;28;20400;-53
2021/06/02 08:36:23;;;;;;;6.90;3.63;;;22.20;81.60;;;;;;5072608;28;20415;-56
2021/06/02 08:38:49;;;;;;;6.47;3.60;;;22.10;81.80;;;;;;5072404;28;20522;-55
2021/06/02 08:41:14;;;;;;;5.10;3.33;;;22.20;81.20;;;;;;5072378;28;20631;-56
2021/06/02 08:43:42;;;;;;;8.67;3.80;;;22.20;80.00;;;;;;5072793;28;20177;-55
2021/06/02 08:46:09;;;;;;;8.90;4.33;;;22.30;80.20;;;;;;5072907;28;20193;-52
2021/06/02 08:48:37;;;;;;;4.60;3.40;;;22.40;79.10;;;;;;5072518;28;20408;-55
2021/06/02 08:51:04;;;;;;;6.40;3.60;;;22.40;78.50;;;;;;5072279;28;20446;-54
2021/06/02 08:53:30;;;;;;;4.00;3.60;;;22.50;78.20;;;;;;5072633;28;20905;-53
2021/06/02 08:55:55;;;;;;;4.17;3.30;;;22.50;78.20;;;;;;5072159;28;20424;-55
2021/06/02 08:58:22;;;;;;;5.93;4.00;;;22.50;77.90;;;;;;5072575;28;20724;-55
2021/06/02 09:00:49;;;;;;;5.80;3.70;;;22.60;77.90;;;;;;5072392;28;20172;-56
2021/06/02 09:03:15;;;;;;;3.10;2.80;;;22.70;78.40;;;;;;5072294;28;20437;-55
2021/06/02 09:05:42;;;;;;;3.07;2.87;;;22.70;77.10;;;;;;5072633;28;20828;-55
2021/06/02 09:08:11;;;;;;;4.93;3.23;;;22.90;76.30;;;;;;5072291;28;20396;-55
2021/06/02 09:10:39;;;;;;;3.50;3.03;;;22.90;75.20;;;;;;5072213;28;20451;-54
2021/06/02 09:13:15;;;;;;;5.53;3.73;;;23.00;74.90;;;;;;5072643;28;20404;-55
2021/06/02 09:15:44;;;;;;;3.43;3.13;;;23.20;75.60;;;;;;5072146;28;20380;-55
2021/06/02 09:18:17;;;;;;;3.37;3.07;;;23.20;74.10;;;;;;5074789;28;20884;-55
2021/06/02 09:20:51;;;;;;;3.40;3.10;;;23.40;74.70;;;;;;5076818;28;20396;-55
2021/06/02 09:23:37;;;;;;;3.60;2.63;;;23.50;76.10;;;;;;5076689;28;20391;-56
2021/06/02 09:26:21;;;;;;;3.50;3.00;;;23.70;75.10;;;;;;5076234;28;20434;-56
2021/06/02 09:28:58;;;;;;;3.17;2.87;;;23.70;69.40;;;;;;5075912;28;20418;-54
2021/06/02 09:31:30;;;;;;;3.97;2.30;;;23.80;67.20;;;;;;5076113;28;20431;-56
2021/06/02 09:33:59;;;;;;;2.67;2.47;;;23.80;65.80;;;;;;5076395;28;20845;-56
2021/06/02 09:36:29;;;;;;;2.40;2.13;;;23.90;67.00;;;;;;5076076;28;20416;-56
2021/06/02 09:39:00;;;;;;;4.33;2.97;;;24.00;64.80;;;;;;5075941;28;20762;-56
2021/06/02 09:41:28;;;;;;;6.00;2.93;;;24.00;65.00;;;;;;5075925;28;20471;-56
2021/06/02 09:43:54;;;;;;;4.73;2.40;;;24.20;65.70;;;;;;5075973;28;20408;-56
2021/06/02 09:46:19;;;;;;;4.90;3.17;;;24.30;65.90;;;;;;5058302;28;20428;-56
2021/06/02 09:48:48;;;;;;;6.27;2.80;;;24.20;63.80;;;;;;5075913;28;20587;-56
2021/06/02 09:51:37;;;;;;;5.30;2.57;;;24.30;66.70;;;;;;5075901;28;20194;-51
2021/06/02 09:54:08;;;;;;;4.10;2.43;;;24.40;62.40;;;;;;5076051;28;20392;-56
2021/06/02 09:56:44;;;;;;;4.60;2.83;;;24.10;61.90;;;;;;5075224;28;20431;-56
2021/06/02 09:59:11;;;;;;;2.87;2.60;;;24.00;61.70;;;;;;5057520;28;20411;-55
2021/06/02 10:01:59;;;;;;;3.13;2.83;;;24.20;64.00;;;;;;5075538;28;20487;-56
2021/06/02 10:04:41;;;;;;;2.40;2.20;;;24.30;62.60;;;;;;5076040;28;20389;-54
2021/06/02 10:07:21;;;;;;;5.53;2.63;;;24.40;61.30;;;;;;5075580;28;20436;-51
2021/06/02 10:09:47;;;;;;;2.80;2.50;;;24.50;61.10;;;;;;5075389;28;20535;-51
2021/06/02 10:12:14;;;;;;;3.53;3.00;;;24.70;60.60;;;;;;5075509;28;20492;-51
2021/06/02 10:14:55;;;;;;;3.10;2.50;;;24.90;60.10;;;;;;5071929;28;20411;-54
2021/06/02 10:17:37;;;;;;;2.27;2.07;;;25.00;58.10;;;;;;5067228;28;20522;-52
2021/06/02 10:20:12;;;;;;;5.37;2.90;;;25.10;57.90;;;;;;5075280;28;20389;-50
2021/06/02 10:22:39;;;;;;;3.07;2.87;;;25.20;57.80;;;;;;5055343;28;20434;-53
2021/06/02 10:25:07;;;;;;;4.17;2.47;;;25.40;57.50;;;;;;5055179;28;20405;-52
2021/06/02 10:27:33;;;;;;;2.90;2.70;;;25.30;57.20;;;;;;5054409;28;20425;-56
2021/06/02 10:29:59;;;;;;;2.60;2.40;;;25.20;58.00;;;;;;5054893;28;20452;-51
2021/06/02 10:32:26;;;;;;;4.60;2.70;;;25.30;56.90;;;;;;5056248;28;20398;-52
2021/06/02 10:34:53;;;;;;;3.77;2.70;;;25.50;57.00;;;;;;5089533;28;20404;-53
2021/06/02 10:37:21;;;;;;;4.73;2.60;;;25.80;56.00;;;;;;5094786;28;20458;-55
2021/06/02 10:39:51;;;;;;;4.63;2.40;;;25.50;56.10;;;;;;5094793;28;20395;-53
2021/06/02 10:42:47;;;;;;;2.93;2.67;;;25.80;57.10;;;;;;5094432;28;20439;-54
2021/06/02 10:45:21;;;;;;;3.50;2.33;;;25.90;55.60;;;;;;5070873;28;20464;-56
2021/06/02 10:48:01;;;;;;;3.33;2.70;;;25.80;54.90;;;;;;5094816;28;20442;-55
2021/06/02 10:50:38;;;;;;;3.07;2.77;;;26.00;55.70;;;;;;5094841;28;20439;-55
2021/06/02 10:53:22;;;;;;;4.30;2.90;;;26.00;53.20;;;;;;5094763;28;20411;-55
2021/06/02 10:55:53;;;;;;;4.93;2.93;;;25.90;54.10;;;;;;5094551;28;20985;-56
2021/06/02 10:58:22;;;;;;;3.47;2.90;;;25.80;53.30;;;;;;5095004;28;20392;-55
2021/06/02 11:01:08;;;;;;;4.00;2.73;;;26.00;53.40;;;;;;5094682;28;20427;-56
2021/06/02 11:03:38;;;;;;;2.70;2.50;;;26.30;53.00;;;;;;5094727;28;20395;-56
2021/06/02 11:06:15;;;;;;;3.37;2.53;;;26.20;51.80;;;;;;5093931;28;21016;-55
2021/06/02 11:08:52;;;;;;;3.30;3.00;;;26.10;54.20;;;;;;5093676;28;20778;-55
2021/06/02 11:11:36;;;;;;;4.10;2.80;;;26.40;54.10;;;;;;5036056;28;20535;-55
2021/06/02 11:14:18;;;;;;;6.13;2.40;;;26.50;52.00;;;;;;5035980;28;20401;-51
2021/06/02 11:17:01;;;;;;;2.87;2.60;;;26.40;54.80;;;;;;5054119;28;20475;-55
2021/06/02 11:19:30;;;;;;;2.83;2.50;;;26.70;53.10;;;;;;5055091;28;20389;-54
2021/06/02 11:21:56;;;;;;;3.83;3.13;;;26.90;51.50;;;;;;5054616;28;20463;-54
2021/06/02 11:24:34;;;;;;;3.57;2.90;;;26.80;50.80;;;;;;5054238;28;20397;-55
2021/06/02 11:27:12;;;;;;;3.30;2.90;;;26.70;50.40;;;;;;5053874;28;20244;-53
2021/06/02 11:29:37;;;;;;;2.43;2.20;;;27.30;49.20;;;;;;5053581;28;20925;-53
2021/06/02 11:32:28;;;;;;;3.60;2.87;;;28.60;47.30;;;;;;5053570;28;20483;-54
2021/06/02 11:35:06;;;;;;;2.87;2.47;;;30.80;44.40;;;;;;5054075;28;20167;-55
2021/06/02 11:37:37;;;;;;;4.13;2.73;;;32.60;42.00;;;;;;5054075;28;20413;-50
2021/06/02 11:40:10;;;;;;;2.80;2.60;;;33.50;39.00;;;;;;5052930;28;20378;-52
2021/06/02 11:42:43;;;;;;;3.20;2.30;;;33.30;38.60;;;;;;5053748;28;20473;-54
2021/06/02 11:45:14;;;;;;;2.90;2.70;;;33.70;38.30;;;;;;5053753;28;20401;-52
2021/06/02 11:47:52;;;;;;;3.50;2.13;;;34.20;37.40;;;;;;5053116;28;20424;-54
2021/06/02 11:50:20;;;;;;;3.67;2.67;;;35.00;35.90;;;;;;5053767;28;20439;-53
2021/06/02 11:52:54;;;;;;;2.30;2.10;;;35.90;35.50;;;;;;5053571;28;20470;-55
2021/06/02 11:55:19;;;;;;;2.53;2.33;;;34.80;34.50;;;;;;5053666;28;20464;-55
2021/06/02 11:57:49;;;;;;;2.70;2.20;;;34.50;35.70;;;;;;5053326;28;20551;-56
2021/06/02 12:00:30;;;;;;;2.63;2.20;;;34.50;34.90;;;;;;5053671;28;20175;-55
2021/06/02 12:03:04;;;;;;;4.47;2.60;;;35.30;35.30;;;;;;5054382;28;20990;-56
2021/06/02 12:05:33;;;;;;;2.53;2.33;;;35.00;33.90;;;;;;5053267;28;20414;-53
2021/06/02 12:08:05;;;;;;;10.60;3.03;;;35.50;34.80;;;;;;5053649;28;20412;-56
2021/06/02 12:10:37;;;;;;;3.73;2.10;;;34.70;34.40;;;;;;5067980;28;20436;-55
2021/06/02 12:13:05;;;;;;;3.20;2.83;;;34.80;34.50;;;;;;5073502;28;20389;-55
2021/06/02 12:15:46;;;;;;;2.90;2.60;;;34.80;34.00;;;;;;5072994;28;20400;-55
2021/06/02 12:18:12;;;;;;;4.70;2.30;;;34.80;33.70;;;;;;5073810;28;20385;-53
2021/06/02 12:20:39;;;;;;;3.60;2.23;;;34.40;33.90;;;;;;5073130;28;20435;-54
2021/06/02 12:23:05;;;;;;;3.03;2.17;;;34.40;34.90;;;;;;5073022;28;20861;-57
2021/06/02 12:25:33;;;;;;;3.07;2.10;;;35.10;33.10;;;;;;5074047;28;20404;-54
2021/06/02 12:28:02;;;;;;;3.37;2.20;;;34.60;34.20;;;;;;5073008;28;20617;-53
2021/06/02 12:30:37;;;;;;;2.90;2.20;;;35.10;33.80;;;;;;5073458;28;20840;-55
2021/06/02 12:33:09;;;;;;;4.30;2.57;;;36.20;34.00;;;;;;5073752;28;20744;-55
2021/06/02 12:35:42;;;;;;;2.10;2.00;;;37.70;31.30;;;;;;5081674;28;20391;-55
2021/06/02 12:38:17;;;;;;;3.53;2.33;;;38.20;30.80;;;;;;5093221;28;20879;-56
2021/06/02 12:40:47;;;;;;;2.53;2.27;;;38.00;30.50;;;;;;5093491;28;20422;-53
2021/06/02 12:43:25;;;;;;;2.90;2.10;;;37.60;31.00;;;;;;5092835;28;20468;-56
2021/06/02 12:46:06;;;;;;;2.00;1.90;;;37.70;30.10;;;;;;5093349;28;20538;-53
2021/06/02 12:48:34;;;;;;;2.93;1.97;;;36.40;30.90;;;;;;5093425;28;20395;-54
2021/06/02 12:51:00;;;;;;;4.13;1.97;;;36.10;32.20;;;;;;5092746;28;20560;-54
2021/06/02 12:53:34;;;;;;;2.20;2.00;;;36.20;31.30;;;;;;5093286;28;20410;-51
2021/06/02 12:55:59;;;;;;;3.27;1.90;;;35.40;33.00;;;;;;5094061;28;20445;-54
2021/06/02 12:58:30;;;;;;;4.03;2.10;;;35.90;31.70;;;;;;5094216;28;20471;-56
2021/06/02 13:00:59;;;;;;;3.10;2.20;;;36.80;30.90;;;;;;5094518;28;20158;-56
2021/06/02 13:03:25;;;;;;;5.30;2.40;;;37.40;30.00;;;;;;5094070;28;20400;-53
2021/06/02 13:05:51;;;;;;;2.80;1.80;;;36.90;30.20;;;;;;5094817;28;20524;-57
2021/06/02 13:08:17;;;;;;;2.20;2.00;;;36.50;30.00;;;;;;5075766;28;20171;-55
2021/06/02 13:10:44;;;;;;;2.47;2.27;;;36.60;30.00;;;;;;5068398;28;20185;-56
2021/06/02 13:13:12;;;;;;;3.67;3.13;;;36.80;30.30;;;;;;5072916;28;20174;-55
2021/06/02 13:15:55;;;;;;;1.80;1.70;;;37.40;30.10;;;;;;5072716;28;20726;-57
2021/06/02 13:18:23;;;;;;;2.10;1.80;;;38.40;30.00;;;;;;5072914;28;20826;-55
2021/06/02 13:20:50;;;;;;;1.60;1.50;;;38.30;29.30;;;;;;5072684;28;20404;-57
2021/06/02 13:23:15;;;;;;;1.80;1.70;;;38.00;29.10;;;;;;5072509;28;20403;-56
2021/06/02 13:25:43;;;;;;;2.27;1.70;;;36.30;30.30;;;;;;5072380;28;20405;-57
2021/06/02 13:28:10;;;;;;;2.40;1.93;;;36.10;31.00;;;;;;5072557;28;20194;-57